sensor_id;sensor_type;location;lat;lon;timestamp;P1;durP1;ratioP1;P2;durP2;ratioP2
44222;SDS011;29895;48.804;9.386;2023-02-08T00:01:37;24.63;;;10.13;;
44222;SDS011;29895;48.804;9.386;2023-02-08T00:04:03;20.67;;;9.75;;
44222;SDS011;29895;48.804;9.386;2023-02-08T00:06:29;22.65;;;9.43;;
44222;SDS011;29895;48.804;9.386;2023-02-08T00:08:55;22.67;;;9.27;;
44222;SDS011;29895;48.804;9.386;2023-02-08T00:11:21;23.95;;;10.32;;
44222;SDS011;29895;48.804;9.386;2023-02-08T00:13:46;23.83;;;10.10;;
44222;SDS011;29895;48.804;9.386;2023-02-08T00:16:13;28.83;;;10.45;;
44222;SDS011;29895;48.804;9.386;2023-02-08T00:18:39;24.00;;;10.48;;
44222;SDS011;29895;48.804;9.386;2023-02-08T00:21:06;20.13;;;9.65;;
44222;SDS011;29895;48.804;9.386;2023-02-08T00:23:36;28.95;;;12.02;;
44222;SDS011;29895;48.804;9.386;2023-02-08T00:26:01;32.42;;;11.38;;
44222;SDS011;29895;48.804;9.386;2023-02-08T00:28:27;24.45;;;9.80;;
44222;SDS011;29895;48.804;9.386;2023-02-08T00:30:53;21.80;;;9.02;;
44222;SDS011;29895;48.804;9.386;2023-02-08T00:33:18;22.92;;;9.15;;
44222;SDS011;29895;48.804;9.386;2023-02-08T00:35:44;21.02;;;8.65;;
44222;SDS011;29895;48.804;9.386;2023-02-08T00:38:11;21.52;;;7.85;;
44222;SDS011;29895;48.804;9.386;2023-02-08T00:40:37;19.23;;;9.07;;
44222;SDS011;29895;48.804;9.386;2023-02-08T00:43:02;22.27;;;9.95;;
44222;SDS011;29895;48.804;9.386;2023-02-08T00:45:28;23.15;;;10.38;;
44222;SDS011;29895;48.804;9.386;2023-02-08T00:47:54;24.15;;;9.07;;
44222;SDS011;29895;48.804;9.386;2023-02-08T00:50:20;17.95;;;8.50;;
44222;SDS011;29895;48.804;9.386;2023-02-08T00:52:46;25.52;;;9.38;;
44222;SDS011;29895;48.804;9.386;2023-02-08T00:55:11;19.63;;;9.20;;
44222;SDS011;29895;48.804;9.386;2023-02-08T00:57:37;23.73;;;9.07;;
44222;SDS011;29895;48.804;9.386;2023-02-08T01:00:03;28.90;;;10.20;;
44222;SDS011;29895;48.804;9.386;2023-02-08T01:02:30;25.88;;;10.18;;
44222;SDS011;29895;48.804;9.386;2023-02-08T01:04:56;21.35;;;8.05;;
44222;SDS011;29895;48.804;9.386;2023-02-08T01:07:22;20.52;;;9.07;;
44222;SDS011;29895;48.804;9.386;2023-02-08T01:09:49;19.85;;;8.63;;
44222;SDS011;29895;48.804;9.386;2023-02-08T01:12:14;16.95;;;8.43;;
44222;SDS011;29895;48.804;9.386;2023-02-08T01:14:40;20.98;;;8.02;;
44222;SDS011;29895;48.804;9.386;2023-02-08T01:17:06;18.17;;;9.75;;
44222;SDS011;29895;48.804;9.386;2023-02-08T01:19:32;20.35;;;9.57;;
44222;SDS011;29895;48.804;9.386;2023-02-08T01:21:58;20.02;;;8.65;;
44222;SDS011;29895;48.804;9.386;2023-02-08T01:24:24;23.88;;;8.63;;
44222;SDS011;29895;48.804;9.386;2023-02-08T01:26:50;21.45;;;8.02;;
44222;SDS011;29895;48.804;9.386;2023-02-08T01:29:15;20.42;;;8.30;;
44222;SDS011;29895;48.804;9.386;2023-02-08T01:31:41;19.70;;;8.25;;
44222;SDS011;29895;48.804;9.386;2023-02-08T01:34:08;21.92;;;8.15;;
44222;SDS011;29895;48.804;9.386;2023-02-08T01:36:35;19.95;;;9.23;;
44222;SDS011;29895;48.804;9.386;2023-02-08T01:39:01;19.13;;;7.80;;
44222;SDS011;29895;48.804;9.386;2023-02-08T01:41:32;19.45;;;8.15;;
44222;SDS011;29895;48.804;9.386;2023-02-08T01:44:05;18.98;;;8.05;;
44222;SDS011;29895;48.804;9.386;2023-02-08T01:49:11;16.40;;;7.95;;
44222;SDS011;29895;48.804;9.386;2023-02-08T01:51:55;26.95;;;8.30;;
44222;SDS011;29895;48.804;9.386;2023-02-08T01:54:27;24.48;;;8.57;;
44222;SDS011;29895;48.804;9.386;2023-02-08T01:59:28;17.60;;;8.43;;
44222;SDS011;29895;48.804;9.386;2023-02-08T02:02:05;20.20;;;7.95;;
44222;SDS011;29895;48.804;9.386;2023-02-08T02:04:34;23.40;;;9.20;;
44222;SDS011;29895;48.804;9.386;2023-02-08T02:06:59;26.23;;;9.02;;
44222;SDS011;29895;48.804;9.386;2023-02-08T02:09:32;20.15;;;8.40;;
44222;SDS011;29895;48.804;9.386;2023-02-08T02:12:05;30.27;;;9.73;;
44222;SDS011;29895;48.804;9.386;2023-02-08T02:14:33;26.55;;;9.13;;
44222;SDS011;29895;48.804;9.386;2023-02-08T02:17:01;25.35;;;9.70;;
44222;SDS011;29895;48.804;9.386;2023-02-08T02:33:25;19.58;;;7.63;;
44222;SDS011;29895;48.804;9.386;2023-02-08T02:35:57;19.40;;;8.10;;
44222;SDS011;29895;48.804;9.386;2023-02-08T02:46:26;19.25;;;7.95;;
44222;SDS011;29895;48.804;9.386;2023-02-08T02:49:03;20.80;;;7.80;;
44222;SDS011;29895;48.804;9.386;2023-02-08T02:51:41;17.95;;;7.50;;
44222;SDS011;29895;48.804;9.386;2023-02-08T02:54:41;16.42;;;6.35;;
44222;SDS011;29895;48.804;9.386;2023-02-08T02:57:21;21.67;;;7.70;;
44222;SDS011;29895;48.804;9.386;2023-02-08T02:59:51;22.70;;;7.97;;
44222;SDS011;29895;48.804;9.386;2023-02-08T03:02:17;18.55;;;7.93;;
44222;SDS011;29895;48.804;9.386;2023-02-08T03:04:48;20.27;;;7.90;;
44222;SDS011;29895;48.804;9.386;2023-02-08T03:15:17;22.65;;;8.30;;
44222;SDS011;29895;48.804;9.386;2023-02-08T03:20:45;19.70;;;9.05;;
44222;SDS011;29895;48.804;9.386;2023-02-08T03:23:36;25.60;;;9.50;;
44222;SDS011;29895;48.804;9.386;2023-02-08T03:26:26;24.35;;;9.40;;
44222;SDS011;29895;48.804;9.386;2023-02-08T03:31:47;25.25;;;9.52;;
44222;SDS011;29895;48.804;9.386;2023-02-08T03:34:23;23.90;;;9.32;;
44222;SDS011;29895;48.804;9.386;2023-02-08T03:37:05;25.35;;;9.73;;
44222;SDS011;29895;48.804;9.386;2023-02-08T03:39:35;21.05;;;8.98;;
44222;SDS011;29895;48.804;9.386;2023-02-08T03:42:05;26.05;;;9.75;;
44222;SDS011;29895;48.804;9.386;2023-02-08T03:44:37;32.50;;;11.38;;
44222;SDS011;29895;48.804;9.386;2023-02-08T03:50:05;27.45;;;9.13;;
44222;SDS011;29895;48.804;9.386;2023-02-08T03:52:34;30.10;;;11.00;;
44222;SDS011;29895;48.804;9.386;2023-02-08T03:55:01;25.02;;;10.82;;
44222;SDS011;29895;48.804;9.386;2023-02-08T03:57:28;28.70;;;10.05;;
44222;SDS011;29895;48.804;9.386;2023-02-08T03:59:59;20.30;;;6.63;;
44222;SDS011;29895;48.804;9.386;2023-02-08T04:02:37;19.75;;;8.02;;
44222;SDS011;29895;48.804;9.386;2023-02-08T04:05:06;19.67;;;8.13;;
44222;SDS011;29895;48.804;9.386;2023-02-08T04:07:32;24.17;;;7.95;;
44222;SDS011;29895;48.804;9.386;2023-02-08T04:09:58;21.92;;;7.93;;
44222;SDS011;29895;48.804;9.386;2023-02-08T04:12:23;22.42;;;8.35;;
44222;SDS011;29895;48.804;9.386;2023-02-08T04:14:49;21.27;;;8.15;;
44222;SDS011;29895;48.804;9.386;2023-02-08T04:17:15;21.48;;;8.15;;
44222;SDS011;29895;48.804;9.386;2023-02-08T04:19:40;21.17;;;8.68;;
44222;SDS011;29895;48.804;9.386;2023-02-08T04:22:06;21.40;;;7.78;;
44222;SDS011;29895;48.804;9.386;2023-02-08T04:24:31;22.23;;;9.13;;
44222;SDS011;29895;48.804;9.386;2023-02-08T04:26:57;22.20;;;9.38;;
44222;SDS011;29895;48.804;9.386;2023-02-08T04:29:23;18.35;;;8.68;;
44222;SDS011;29895;48.804;9.386;2023-02-08T04:31:48;20.58;;;8.52;;
44222;SDS011;29895;48.804;9.386;2023-02-08T04:34:14;19.38;;;9.48;;
44222;SDS011;29895;48.804;9.386;2023-02-08T04:36:40;26.50;;;9.80;;
44222;SDS011;29895;48.804;9.386;2023-02-08T04:39:05;25.70;;;10.32;;
44222;SDS011;29895;48.804;9.386;2023-02-08T04:41:31;23.15;;;9.70;;
44222;SDS011;29895;48.804;9.386;2023-02-08T04:43:57;23.73;;;9.15;;
44222;SDS011;29895;48.804;9.386;2023-02-08T04:46:22;22.67;;;8.60;;
44222;SDS011;29895;48.804;9.386;2023-02-08T04:48:48;25.52;;;9.00;;
44222;SDS011;29895;48.804;9.386;2023-02-08T04:51:14;20.98;;;9.15;;
44222;SDS011;29895;48.804;9.386;2023-02-08T04:53:40;22.38;;;7.85;;
44222;SDS011;29895;48.804;9.386;2023-02-08T04:56:05;22.58;;;9.35;;
44222;SDS011;29895;48.804;9.386;2023-02-08T04:58:31;21.13;;;8.50;;
44222;SDS011;29895;48.804;9.386;2023-02-08T05:00:57;22.98;;;8.65;;
44222;SDS011;29895;48.804;9.386;2023-02-08T05:03:22;22.70;;;7.53;;
44222;SDS011;29895;48.804;9.386;2023-02-08T05:05:57;23.65;;;9.00;;
44222;SDS011;29895;48.804;9.386;2023-02-08T05:08:24;30.58;;;9.75;;
44222;SDS011;29895;48.804;9.386;2023-02-08T05:10:50;23.63;;;9.05;;
44222;SDS011;29895;48.804;9.386;2023-02-08T05:13:15;29.88;;;8.68;;
44222;SDS011;29895;48.804;9.386;2023-02-08T05:15:41;25.52;;;9.50;;
44222;SDS011;29895;48.804;9.386;2023-02-08T05:18:09;28.73;;;9.32;;
44222;SDS011;29895;48.804;9.386;2023-02-08T05:20:35;21.55;;;8.98;;
44222;SDS011;29895;48.804;9.386;2023-02-08T05:23:00;23.23;;;9.30;;
44222;SDS011;29895;48.804;9.386;2023-02-08T05:25:26;23.92;;;8.70;;
44222;SDS011;29895;48.804;9.386;2023-02-08T05:27:51;29.50;;;9.88;;
44222;SDS011;29895;48.804;9.386;2023-02-08T05:30:17;22.33;;;8.38;;
44222;SDS011;29895;48.804;9.386;2023-02-08T05:32:43;28.27;;;9.07;;
44222;SDS011;29895;48.804;9.386;2023-02-08T05:35:08;24.48;;;9.73;;
44222;SDS011;29895;48.804;9.386;2023-02-08T05:37:34;20.50;;;8.80;;
44222;SDS011;29895;48.804;9.386;2023-02-08T05:40:00;26.30;;;9.15;;
44222;SDS011;29895;48.804;9.386;2023-02-08T05:42:25;23.20;;;9.40;;
44222;SDS011;29895;48.804;9.386;2023-02-08T05:44:51;25.13;;;11.30;;
44222;SDS011;29895;48.804;9.386;2023-02-08T05:47:17;23.55;;;10.60;;
44222;SDS011;29895;48.804;9.386;2023-02-08T05:49:42;34.83;;;12.10;;
44222;SDS011;29895;48.804;9.386;2023-02-08T05:52:08;29.45;;;11.85;;
44222;SDS011;29895;48.804;9.386;2023-02-08T05:54:34;32.58;;;12.27;;
44222;SDS011;29895;48.804;9.386;2023-02-08T05:56:59;33.38;;;11.40;;
44222;SDS011;29895;48.804;9.386;2023-02-08T05:59:25;35.05;;;12.25;;
44222;SDS011;29895;48.804;9.386;2023-02-08T06:01:51;29.98;;;10.57;;
44222;SDS011;29895;48.804;9.386;2023-02-08T06:04:16;36.78;;;11.32;;
44222;SDS011;29895;48.804;9.386;2023-02-08T06:06:42;26.20;;;10.18;;
44222;SDS011;29895;48.804;9.386;2023-02-08T06:09:08;30.23;;;10.70;;
44222;SDS011;29895;48.804;9.386;2023-02-08T06:11:33;34.53;;;10.80;;
44222;SDS011;29895;48.804;9.386;2023-02-08T06:14:00;34.25;;;12.18;;
44222;SDS011;29895;48.804;9.386;2023-02-08T06:16:26;31.48;;;12.30;;
44222;SDS011;29895;48.804;9.386;2023-02-08T06:18:52;39.85;;;15.45;;
44222;SDS011;29895;48.804;9.386;2023-02-08T06:21:18;30.27;;;12.73;;
44222;SDS011;29895;48.804;9.386;2023-02-08T06:23:44;29.88;;;10.90;;
44222;SDS011;29895;48.804;9.386;2023-02-08T06:26:09;30.77;;;10.23;;
44222;SDS011;29895;48.804;9.386;2023-02-08T06:28:36;41.10;;;12.07;;
44222;SDS011;29895;48.804;9.386;2023-02-08T06:31:03;29.60;;;10.77;;
44222;SDS011;29895;48.804;9.386;2023-02-08T06:33:28;29.02;;;12.60;;
44222;SDS011;29895;48.804;9.386;2023-02-08T06:35:54;34.63;;;13.30;;
44222;SDS011;29895;48.804;9.386;2023-02-08T06:38:20;25.55;;;9.93;;
44222;SDS011;29895;48.804;9.386;2023-02-08T06:40:46;24.17;;;10.13;;
44222;SDS011;29895;48.804;9.386;2023-02-08T06:43:13;29.75;;;10.07;;
44222;SDS011;29895;48.804;9.386;2023-02-08T06:45:39;30.23;;;10.65;;
44222;SDS011;29895;48.804;9.386;2023-02-08T06:48:06;30.65;;;11.93;;
44222;SDS011;29895;48.804;9.386;2023-02-08T06:50:32;30.88;;;9.45;;
44222;SDS011;29895;48.804;9.386;2023-02-08T06:52:58;24.63;;;9.80;;
44222;SDS011;29895;48.804;9.386;2023-02-08T06:55:23;26.75;;;11.18;;
44222;SDS011;29895;48.804;9.386;2023-02-08T06:57:53;28.33;;;11.25;;
44222;SDS011;29895;48.804;9.386;2023-02-08T07:00:19;30.13;;;11.02;;
44222;SDS011;29895;48.804;9.386;2023-02-08T07:02:45;36.88;;;13.52;;
44222;SDS011;29895;48.804;9.386;2023-02-08T07:05:14;36.75;;;13.50;;
44222;SDS011;29895;48.804;9.386;2023-02-08T07:07:40;31.00;;;12.07;;
44222;SDS011;29895;48.804;9.386;2023-02-08T07:10:07;36.65;;;12.10;;
44222;SDS011;29895;48.804;9.386;2023-02-08T07:12:33;33.35;;;12.35;;
44222;SDS011;29895;48.804;9.386;2023-02-08T07:14:59;30.80;;;12.50;;
44222;SDS011;29895;48.804;9.386;2023-02-08T07:17:25;32.92;;;13.18;;
44222;SDS011;29895;48.804;9.386;2023-02-08T07:19:52;41.33;;;13.68;;
44222;SDS011;29895;48.804;9.386;2023-02-08T07:22:17;34.45;;;12.63;;
44222;SDS011;29895;48.804;9.386;2023-02-08T07:24:43;32.42;;;12.68;;
44222;SDS011;29895;48.804;9.386;2023-02-08T07:27:09;40.55;;;13.35;;
44222;SDS011;29895;48.804;9.386;2023-02-08T07:29:37;31.52;;;12.68;;
44222;SDS011;29895;48.804;9.386;2023-02-08T07:32:04;28.52;;;12.80;;
44222;SDS011;29895;48.804;9.386;2023-02-08T07:34:32;39.42;;;15.45;;
44222;SDS011;29895;48.804;9.386;2023-02-08T07:37:01;33.80;;;13.73;;
44222;SDS011;29895;48.804;9.386;2023-02-08T07:39:26;28.25;;;12.52;;
44222;SDS011;29895;48.804;9.386;2023-02-08T07:41:52;30.33;;;13.15;;
44222;SDS011;29895;48.804;9.386;2023-02-08T07:44:18;32.63;;;11.52;;
44222;SDS011;29895;48.804;9.386;2023-02-08T07:46:44;29.40;;;12.77;;
44222;SDS011;29895;48.804;9.386;2023-02-08T07:49:09;30.67;;;12.63;;
44222;SDS011;29895;48.804;9.386;2023-02-08T07:51:35;34.05;;;12.85;;
44222;SDS011;29895;48.804;9.386;2023-02-08T07:54:01;31.83;;;12.68;;
44222;SDS011;29895;48.804;9.386;2023-02-08T07:56:27;26.13;;;11.13;;
44222;SDS011;29895;48.804;9.386;2023-02-08T07:58:53;32.38;;;12.15;;
44222;SDS011;29895;48.804;9.386;2023-02-08T08:01:18;31.27;;;12.40;;
44222;SDS011;29895;48.804;9.386;2023-02-08T08:03:44;34.15;;;14.65;;
44222;SDS011;29895;48.804;9.386;2023-02-08T08:06:09;35.22;;;14.30;;
44222;SDS011;29895;48.804;9.386;2023-02-08T08:08:35;35.03;;;12.70;;
44222;SDS011;29895;48.804;9.386;2023-02-08T08:11:01;30.23;;;12.55;;
44222;SDS011;29895;48.804;9.386;2023-02-08T08:13:26;43.95;;;16.67;;
44222;SDS011;29895;48.804;9.386;2023-02-08T08:15:52;59.72;;;20.63;;
44222;SDS011;29895;48.804;9.386;2023-02-08T08:18:18;48.25;;;19.27;;
44222;SDS011;29895;48.804;9.386;2023-02-08T08:20:43;44.67;;;18.02;;
44222;SDS011;29895;48.804;9.386;2023-02-08T08:23:09;26.80;;;13.73;;
44222;SDS011;29895;48.804;9.386;2023-02-08T08:25:35;30.88;;;13.15;;
44222;SDS011;29895;48.804;9.386;2023-02-08T08:28:02;28.33;;;11.52;;
44222;SDS011;29895;48.804;9.386;2023-02-08T08:30:28;29.05;;;12.25;;
44222;SDS011;29895;48.804;9.386;2023-02-08T08:32:54;39.33;;;13.77;;
44222;SDS011;29895;48.804;9.386;2023-02-08T08:35:19;36.58;;;11.60;;
44222;SDS011;29895;48.804;9.386;2023-02-08T08:37:45;34.35;;;13.40;;
44222;SDS011;29895;48.804;9.386;2023-02-08T08:40:11;32.70;;;13.45;;
44222;SDS011;29895;48.804;9.386;2023-02-08T08:42:37;36.05;;;13.32;;
44222;SDS011;29895;48.804;9.386;2023-02-08T08:45:06;35.15;;;13.45;;
44222;SDS011;29895;48.804;9.386;2023-02-08T08:47:32;37.25;;;13.98;;
44222;SDS011;29895;48.804;9.386;2023-02-08T08:49:58;30.40;;;13.85;;
44222;SDS011;29895;48.804;9.386;2023-02-08T08:52:23;42.83;;;14.40;;
44222;SDS011;29895;48.804;9.386;2023-02-08T08:54:49;43.42;;;13.85;;
44222;SDS011;29895;48.804;9.386;2023-02-08T08:57:15;29.00;;;13.85;;
44222;SDS011;29895;48.804;9.386;2023-02-08T08:59:41;33.83;;;13.57;;
44222;SDS011;29895;48.804;9.386;2023-02-08T09:02:11;33.53;;;13.88;;
44222;SDS011;29895;48.804;9.386;2023-02-08T09:04:38;32.97;;;13.77;;
44222;SDS011;29895;48.804;9.386;2023-02-08T09:07:07;43.20;;;14.48;;
44222;SDS011;29895;48.804;9.386;2023-02-08T09:09:33;37.45;;;13.43;;
44222;SDS011;29895;48.804;9.386;2023-02-08T09:12:00;34.75;;;13.05;;
44222;SDS011;29895;48.804;9.386;2023-02-08T09:14:26;34.80;;;14.25;;
44222;SDS011;29895;48.804;9.386;2023-02-08T09:16:52;30.33;;;13.15;;
44222;SDS011;29895;48.804;9.386;2023-02-08T09:19:18;32.97;;;13.80;;
44222;SDS011;29895;48.804;9.386;2023-02-08T09:21:43;40.90;;;13.43;;
44222;SDS011;29895;48.804;9.386;2023-02-08T09:24:09;29.60;;;12.43;;
44222;SDS011;29895;48.804;9.386;2023-02-08T09:26:35;30.38;;;12.68;;
44222;SDS011;29895;48.804;9.386;2023-02-08T09:29:00;37.17;;;12.68;;
44222;SDS011;29895;48.804;9.386;2023-02-08T09:31:28;37.20;;;14.95;;
44222;SDS011;29895;48.804;9.386;2023-02-08T09:33:56;30.75;;;13.05;;
44222;SDS011;29895;48.804;9.386;2023-02-08T09:36:25;31.50;;;12.85;;
44222;SDS011;29895;48.804;9.386;2023-02-08T09:39:00;33.88;;;13.75;;
44222;SDS011;29895;48.804;9.386;2023-02-08T09:47:02;32.65;;;14.13;;
44222;SDS011;29895;48.804;9.386;2023-02-08T09:49:56;32.42;;;12.82;;
44222;SDS011;29895;48.804;9.386;2023-02-08T09:52:28;27.25;;;12.13;;
44222;SDS011;29895;48.804;9.386;2023-02-08T09:55:14;32.05;;;11.98;;
44222;SDS011;29895;48.804;9.386;2023-02-08T09:57:58;30.58;;;12.70;;
44222;SDS011;29895;48.804;9.386;2023-02-08T10:00:39;31.13;;;11.63;;
44222;SDS011;29895;48.804;9.386;2023-02-08T10:03:07;31.10;;;11.50;;
44222;SDS011;29895;48.804;9.386;2023-02-08T10:05:55;30.90;;;12.80;;
44222;SDS011;29895;48.804;9.386;2023-02-08T10:08:21;32.13;;;12.13;;
44222;SDS011;29895;48.804;9.386;2023-02-08T10:10:54;28.75;;;11.48;;
44222;SDS011;29895;48.804;9.386;2023-02-08T10:16:49;35.28;;;12.65;;
44222;SDS011;29895;48.804;9.386;2023-02-08T10:19:00;36.05;;;11.75;;
44222;SDS011;29895;48.804;9.386;2023-02-08T10:24:35;26.08;;;11.05;;
44222;SDS011;29895;48.804;9.386;2023-02-08T10:27:26;26.27;;;11.55;;
44222;SDS011;29895;48.804;9.386;2023-02-08T10:37:53;24.00;;;9.70;;
44222;SDS011;29895;48.804;9.386;2023-02-08T10:40:34;25.30;;;10.20;;
44222;SDS011;29895;48.804;9.386;2023-02-08T10:45:44;24.10;;;8.80;;
44222;SDS011;29895;48.804;9.386;2023-02-08T10:51:19;18.40;;;8.25;;
44222;SDS011;29895;48.804;9.386;2023-02-08T10:53:47;20.20;;;8.20;;
44222;SDS011;29895;48.804;9.386;2023-02-08T10:56:16;23.42;;;9.15;;
44222;SDS011;29895;48.804;9.386;2023-02-08T10:58:49;22.02;;;9.50;;
44222;SDS011;29895;48.804;9.386;2023-02-08T11:01:14;18.38;;;7.15;;
44222;SDS011;29895;48.804;9.386;2023-02-08T11:03:41;17.75;;;7.50;;
44222;SDS011;29895;48.804;9.386;2023-02-08T11:06:30;17.38;;;7.63;;
44222;SDS011;29895;48.804;9.386;2023-02-08T11:09:01;22.13;;;7.88;;
44222;SDS011;29895;48.804;9.386;2023-02-08T11:11:26;18.98;;;8.30;;
44222;SDS011;29895;48.804;9.386;2023-02-08T11:17:02;19.30;;;7.00;;
44222;SDS011;29895;48.804;9.386;2023-02-08T11:19:31;20.63;;;7.15;;
44222;SDS011;29895;48.804;9.386;2023-02-08T11:22:11;21.95;;;6.60;;
44222;SDS011;29895;48.804;9.386;2023-02-08T11:24:41;13.90;;;6.93;;
44222;SDS011;29895;48.804;9.386;2023-02-08T11:27:16;17.23;;;7.00;;
44222;SDS011;29895;48.804;9.386;2023-02-08T11:32:36;19.73;;;7.13;;
44222;SDS011;29895;48.804;9.386;2023-02-08T11:35:18;16.48;;;6.32;;
44222;SDS011;29895;48.804;9.386;2023-02-08T11:37:46;19.02;;;6.07;;
44222;SDS011;29895;48.804;9.386;2023-02-08T11:40:17;18.10;;;6.35;;
44222;SDS011;29895;48.804;9.386;2023-02-08T11:42:52;14.50;;;6.72;;
44222;SDS011;29895;48.804;9.386;2023-02-08T11:45:28;12.77;;;6.07;;
44222;SDS011;29895;48.804;9.386;2023-02-08T11:47:59;13.60;;;6.45;;
44222;SDS011;29895;48.804;9.386;2023-02-08T11:50:33;16.15;;;6.32;;
44222;SDS011;29895;48.804;9.386;2023-02-08T11:53:03;12.48;;;6.10;;
44222;SDS011;29895;48.804;9.386;2023-02-08T11:55:32;14.57;;;6.55;;
44222;SDS011;29895;48.804;9.386;2023-02-08T11:58:16;13.75;;;6.05;;
44222;SDS011;29895;48.804;9.386;2023-02-08T12:01:00;12.98;;;5.75;;
44222;SDS011;29895;48.804;9.386;2023-02-08T12:03:44;23.48;;;7.00;;
44222;SDS011;29895;48.804;9.386;2023-02-08T12:14:23;12.60;;;5.55;;
44222;SDS011;29895;48.804;9.386;2023-02-08T12:19:31;18.48;;;4.95;;
44222;SDS011;29895;48.804;9.386;2023-02-08T12:22:20;16.52;;;4.95;;
44222;SDS011;29895;48.804;9.386;2023-02-08T12:25:08;13.52;;;5.30;;
44222;SDS011;29895;48.804;9.386;2023-02-08T12:35:55;18.10;;;7.18;;
44222;SDS011;29895;48.804;9.386;2023-02-08T12:38:28;15.68;;;5.45;;
44222;SDS011;29895;48.804;9.386;2023-02-08T12:41:31;10.10;;;4.70;;
44222;SDS011;29895;48.804;9.386;2023-02-08T12:44:21;12.40;;;4.95;;
44222;SDS011;29895;48.804;9.386;2023-02-08T12:54:41;13.57;;;5.32;;
44222;SDS011;29895;48.804;9.386;2023-02-08T12:57:13;16.98;;;5.40;;
44222;SDS011;29895;48.804;9.386;2023-02-08T13:02:37;13.32;;;5.30;;
44222;SDS011;29895;48.804;9.386;2023-02-08T13:05:15;12.05;;;5.63;;
44222;SDS011;29895;48.804;9.386;2023-02-08T13:07:45;11.15;;;5.45;;
44222;SDS011;29895;48.804;9.386;2023-02-08T13:10:19;12.50;;;5.32;;
44222;SDS011;29895;48.804;9.386;2023-02-08T13:12:53;10.52;;;5.07;;
44222;SDS011;29895;48.804;9.386;2023-02-08T13:15:29;12.23;;;5.18;;
44222;SDS011;29895;48.804;9.386;2023-02-08T13:18:08;12.43;;;6.05;;
44222;SDS011;29895;48.804;9.386;2023-02-08T13:20:40;12.32;;;5.53;;
44222;SDS011;29895;48.804;9.386;2023-02-08T13:25:48;13.00;;;6.07;;
44222;SDS011;29895;48.804;9.386;2023-02-08T13:28:18;13.63;;;5.40;;
44222;SDS011;29895;48.804;9.386;2023-02-08T13:30:51;12.70;;;6.35;;
44222;SDS011;29895;48.804;9.386;2023-02-08T13:36:21;17.33;;;8.23;;
44222;SDS011;29895;48.804;9.386;2023-02-08T13:38:53;19.80;;;5.65;;
44222;SDS011;29895;48.804;9.386;2023-02-08T13:41:22;19.27;;;6.40;;
44222;SDS011;29895;48.804;9.386;2023-02-08T13:43:51;14.45;;;6.53;;
44222;SDS011;29895;48.804;9.386;2023-02-08T13:46:18;14.27;;;6.00;;
44222;SDS011;29895;48.804;9.386;2023-02-08T13:48:49;13.65;;;6.32;;
44222;SDS011;29895;48.804;9.386;2023-02-08T13:56:39;13.80;;;5.63;;
44222;SDS011;29895;48.804;9.386;2023-02-08T13:59:24;13.75;;;5.80;;
44222;SDS011;29895;48.804;9.386;2023-02-08T14:04:43;16.58;;;6.75;;
44222;SDS011;29895;48.804;9.386;2023-02-08T14:09:42;19.75;;;7.63;;
44222;SDS011;29895;48.804;9.386;2023-02-08T14:12:29;18.77;;;6.85;;
44222;SDS011;29895;48.804;9.386;2023-02-08T14:15:22;15.90;;;6.70;;
44222;SDS011;29895;48.804;9.386;2023-02-08T14:17:52;17.63;;;6.82;;
44222;SDS011;29895;48.804;9.386;2023-02-08T14:22:54;17.67;;;7.05;;
44222;SDS011;29895;48.804;9.386;2023-02-08T14:25:43;16.30;;;7.15;;
44222;SDS011;29895;48.804;9.386;2023-02-08T14:28:26;17.58;;;7.22;;
44222;SDS011;29895;48.804;9.386;2023-02-08T14:31:09;18.45;;;7.15;;
44222;SDS011;29895;48.804;9.386;2023-02-08T14:33:40;22.05;;;8.15;;
44222;SDS011;29895;48.804;9.386;2023-02-08T14:36:23;19.20;;;7.53;;
44222;SDS011;29895;48.804;9.386;2023-02-08T14:41:46;18.35;;;7.78;;
44222;SDS011;29895;48.804;9.386;2023-02-08T14:50:16;16.00;;;7.43;;
44222;SDS011;29895;48.804;9.386;2023-02-08T14:53:13;17.80;;;7.90;;
44222;SDS011;29895;48.804;9.386;2023-02-08T14:55:47;21.50;;;7.30;;
44222;SDS011;29895;48.804;9.386;2023-02-08T14:58:40;20.40;;;7.45;;
44222;SDS011;29895;48.804;9.386;2023-02-08T15:01:13;15.68;;;6.43;;
44222;SDS011;29895;48.804;9.386;2023-02-08T15:03:46;22.00;;;7.10;;
44222;SDS011;29895;48.804;9.386;2023-02-08T15:06:21;16.10;;;7.28;;
44222;SDS011;29895;48.804;9.386;2023-02-08T15:09:05;19.88;;;7.30;;
44222;SDS011;29895;48.804;9.386;2023-02-08T15:11:36;18.35;;;7.28;;
44222;SDS011;29895;48.804;9.386;2023-02-08T15:14:03;18.67;;;7.65;;
44222;SDS011;29895;48.804;9.386;2023-02-08T15:16:40;18.27;;;7.22;;
44222;SDS011;29895;48.804;9.386;2023-02-08T15:19:07;16.55;;;7.70;;
44222;SDS011;29895;48.804;9.386;2023-02-08T15:21:42;22.27;;;7.72;;
44222;SDS011;29895;48.804;9.386;2023-02-08T15:24:17;17.73;;;7.60;;
44222;SDS011;29895;48.804;9.386;2023-02-08T15:26:52;22.98;;;7.90;;
44222;SDS011;29895;48.804;9.386;2023-02-08T15:29:26;15.57;;;7.80;;
44222;SDS011;29895;48.804;9.386;2023-02-08T15:31:53;22.20;;;7.97;;
44222;SDS011;29895;48.804;9.386;2023-02-08T15:34:21;19.27;;;7.78;;
44222;SDS011;29895;48.804;9.386;2023-02-08T15:36:49;19.48;;;8.68;;
44222;SDS011;29895;48.804;9.386;2023-02-08T15:39:23;15.95;;;7.22;;
44222;SDS011;29895;48.804;9.386;2023-02-08T15:42:00;19.25;;;7.97;;
44222;SDS011;29895;48.804;9.386;2023-02-08T15:44:27;22.88;;;8.35;;
44222;SDS011;29895;48.804;9.386;2023-02-08T15:46:55;18.67;;;7.88;;
44222;SDS011;29895;48.804;9.386;2023-02-08T15:49:34;19.48;;;8.23;;
44222;SDS011;29895;48.804;9.386;2023-02-08T15:52:02;20.60;;;8.05;;
44222;SDS011;29895;48.804;9.386;2023-02-08T15:54:29;22.75;;;8.02;;
44222;SDS011;29895;48.804;9.386;2023-02-08T15:57:02;20.35;;;9.07;;
44222;SDS011;29895;48.804;9.386;2023-02-08T15:59:40;30.98;;;8.85;;
44222;SDS011;29895;48.804;9.386;2023-02-08T16:02:22;17.52;;;8.27;;
44222;SDS011;29895;48.804;9.386;2023-02-08T16:04:49;16.83;;;8.18;;
44222;SDS011;29895;48.804;9.386;2023-02-08T16:07:30;20.13;;;8.20;;
44222;SDS011;29895;48.804;9.386;2023-02-08T16:10:02;19.55;;;8.52;;
44222;SDS011;29895;48.804;9.386;2023-02-08T16:12:29;21.65;;;8.68;;
44222;SDS011;29895;48.804;9.386;2023-02-08T16:14:56;20.75;;;9.48;;
44222;SDS011;29895;48.804;9.386;2023-02-08T16:19:59;15.63;;;6.78;;
44222;SDS011;29895;48.804;9.386;2023-02-08T16:22:27;18.90;;;7.78;;
44222;SDS011;29895;48.804;9.386;2023-02-08T16:28:02;24.30;;;8.63;;
44222;SDS011;29895;48.804;9.386;2023-02-08T16:30:29;19.88;;;8.50;;
44222;SDS011;29895;48.804;9.386;2023-02-08T16:32:55;19.05;;;8.40;;
44222;SDS011;29895;48.804;9.386;2023-02-08T16:35:27;19.58;;;8.15;;
44222;SDS011;29895;48.804;9.386;2023-02-08T16:37:58;21.80;;;8.73;;
44222;SDS011;29895;48.804;9.386;2023-02-08T16:43:31;21.92;;;10.07;;
44222;SDS011;29895;48.804;9.386;2023-02-08T16:48:37;32.30;;;12.13;;
44222;SDS011;29895;48.804;9.386;2023-02-08T16:51:20;32.72;;;13.90;;
44222;SDS011;29895;48.804;9.386;2023-02-08T16:53:57;30.98;;;11.90;;
44222;SDS011;29895;48.804;9.386;2023-02-08T16:56:26;21.20;;;10.02;;
44222;SDS011;29895;48.804;9.386;2023-02-08T16:58:53;21.50;;;10.15;;
44222;SDS011;29895;48.804;9.386;2023-02-08T17:01:19;18.92;;;9.35;;
44222;SDS011;29895;48.804;9.386;2023-02-08T17:03:47;23.48;;;9.48;;
44222;SDS011;29895;48.804;9.386;2023-02-08T17:06:22;24.05;;;10.70;;
44222;SDS011;29895;48.804;9.386;2023-02-08T17:08:49;20.38;;;9.43;;
44222;SDS011;29895;48.804;9.386;2023-02-08T17:11:15;22.35;;;9.07;;